sensor_id;sensor_type;location;lat;lon;timestamp;P1;durP1;ratioP1;P2;durP2;ratioP2
9900;SDS011;4989;48.772;9.154;2023-03-01T00:02:42;9.80;;;6.80;;
9900;SDS011;4989;48.772;9.154;2023-03-01T00:07:45;10.73;;;7.67;;
9900;SDS011;4989;48.772;9.154;2023-03-01T00:12:47;10.23;;;6.40;;
9900;SDS011;4989;48.772;9.154;2023-03-01T00:17:49;10.17;;;6.80;;
9900;SDS011;4989;48.772;9.154;2023-03-01T00:22:51;9.40;;;6.73;;
9900;SDS011;4989;48.772;9.154;2023-03-01T00:27:54;9.10;;;6.70;;
9900;SDS011;4989;48.772;9.154;2023-03-01T00:32:56;10.47;;;7.37;;
9900;SDS011;4989;48.772;9.154;2023-03-01T00:37:58;12.33;;;7.60;;
9900;SDS011;4989;48.772;9.154;2023-03-01T00:43:01;10.27;;;7.03;;
9900;SDS011;4989;48.772;9.154;2023-03-01T00:48:04;10.87;;;7.70;;
9900;SDS011;4989;48.772;9.154;2023-03-01T00:53:07;11.23;;;6.90;;
9900;SDS011;4989;48.772;9.154;2023-03-01T00:58:10;9.60;;;7.33;;
9900;SDS011;4989;48.772;9.154;2023-03-01T01:03:12;12.37;;;7.37;;
9900;SDS011;4989;48.772;9.154;2023-03-01T01:08:15;10.43;;;6.63;;
9900;SDS011;4989;48.772;9.154;2023-03-01T01:13:17;12.03;;;6.57;;
9900;SDS011;4989;48.772;9.154;2023-03-01T01:18:21;9.37;;;6.90;;
9900;SDS011;4989;48.772;9.154;2023-03-01T01:23:23;9.57;;;6.73;;
9900;SDS011;4989;48.772;9.154;2023-03-01T01:28:26;11.70;;;7.20;;
9900;SDS011;4989;48.772;9.154;2023-03-01T01:33:28;8.70;;;6.87;;
9900;SDS011;4989;48.772;9.154;2023-03-01T01:38:31;10.53;;;7.50;;
9900;SDS011;4989;48.772;9.154;2023-03-01T01:43:35;12.17;;;7.97;;
9900;SDS011;4989;48.772;9.154;2023-03-01T01:48:46;10.17;;;6.63;;
9900;SDS011;4989;48.772;9.154;2023-03-01T01:53:56;9.97;;;6.90;;
9900;SDS011;4989;48.772;9.154;2023-03-01T01:59:01;9.63;;;7.97;;
9900;SDS011;4989;48.772;9.154;2023-03-01T02:04:04;11.50;;;7.40;;
9900;SDS011;4989;48.772;9.154;2023-03-01T02:09:13;11.20;;;7.67;;
9900;SDS011;4989;48.772;9.154;2023-03-01T02:14:18;8.27;;;6.43;;
9900;SDS011;4989;48.772;9.154;2023-03-01T02:19:32;12.73;;;7.60;;
9900;SDS011;4989;48.772;9.154;2023-03-01T02:30:07;11.13;;;7.77;;
9900;SDS011;4989;48.772;9.154;2023-03-01T02:35:14;12.03;;;7.40;;
9900;SDS011;4989;48.772;9.154;2023-03-01T02:40:19;11.77;;;8.07;;
9900;SDS011;4989;48.772;9.154;2023-03-01T02:45:24;12.30;;;8.40;;
9900;SDS011;4989;48.772;9.154;2023-03-01T02:55:30;10.87;;;7.67;;
9900;SDS011;4989;48.772;9.154;2023-03-01T03:00:35;11.07;;;7.87;;
9900;SDS011;4989;48.772;9.154;2023-03-01T03:05:47;11.90;;;8.33;;
9900;SDS011;4989;48.772;9.154;2023-03-01T03:10:50;10.90;;;7.83;;
9900;SDS011;4989;48.772;9.154;2023-03-01T03:15:53;10.23;;;7.73;;
9900;SDS011;4989;48.772;9.154;2023-03-01T03:20:57;12.37;;;8.67;;
9900;SDS011;4989;48.772;9.154;2023-03-01T03:26:00;11.97;;;7.77;;
9900;SDS011;4989;48.772;9.154;2023-03-01T03:31:03;11.20;;;7.93;;
9900;SDS011;4989;48.772;9.154;2023-03-01T03:36:08;12.73;;;7.83;;
9900;SDS011;4989;48.772;9.154;2023-03-01T03:41:14;10.10;;;8.10;;
9900;SDS011;4989;48.772;9.154;2023-03-01T03:46:17;10.43;;;7.70;;
9900;SDS011;4989;48.772;9.154;2023-03-01T03:51:20;10.97;;;8.37;;
9900;SDS011;4989;48.772;9.154;2023-03-01T03:56:24;12.53;;;8.60;;
9900;SDS011;4989;48.772;9.154;2023-03-01T04:01:29;10.93;;;8.03;;
9900;SDS011;4989;48.772;9.154;2023-03-01T04:06:31;12.17;;;8.70;;
9900;SDS011;4989;48.772;9.154;2023-03-01T04:11:33;10.43;;;8.03;;
9900;SDS011;4989;48.772;9.154;2023-03-01T04:16:36;11.87;;;8.37;;
9900;SDS011;4989;48.772;9.154;2023-03-01T04:21:38;10.30;;;6.63;;
9900;SDS011;4989;48.772;9.154;2023-03-01T04:26:40;12.23;;;7.47;;
9900;SDS011;4989;48.772;9.154;2023-03-01T04:31:42;15.60;;;9.27;;
9900;SDS011;4989;48.772;9.154;2023-03-01T04:36:44;11.43;;;8.50;;
9900;SDS011;4989;48.772;9.154;2023-03-01T04:41:47;13.43;;;9.00;;
9900;SDS011;4989;48.772;9.154;2023-03-01T04:46:49;11.77;;;8.43;;
9900;SDS011;4989;48.772;9.154;2023-03-01T04:51:51;13.73;;;8.03;;
9900;SDS011;4989;48.772;9.154;2023-03-01T04:56:54;11.97;;;9.00;;
9900;SDS011;4989;48.772;9.154;2023-03-01T05:01:56;12.40;;;9.00;;
9900;SDS011;4989;48.772;9.154;2023-03-01T05:06:58;11.00;;;8.37;;
9900;SDS011;4989;48.772;9.154;2023-03-01T05:12:01;10.53;;;7.93;;
9900;SDS011;4989;48.772;9.154;2023-03-01T05:17:03;11.63;;;8.60;;
9900;SDS011;4989;48.772;9.154;2023-03-01T05:22:05;11.60;;;8.40;;
9900;SDS011;4989;48.772;9.154;2023-03-01T05:27:07;12.13;;;8.50;;
9900;SDS011;4989;48.772;9.154;2023-03-01T05:32:09;14.13;;;8.73;;
9900;SDS011;4989;48.772;9.154;2023-03-01T05:37:16;12.00;;;9.00;;
9900;SDS011;4989;48.772;9.154;2023-03-01T05:42:19;12.53;;;8.60;;
9900;SDS011;4989;48.772;9.154;2023-03-01T05:47:21;10.73;;;8.83;;
9900;SDS011;4989;48.772;9.154;2023-03-01T05:52:23;13.50;;;9.23;;
9900;SDS011;4989;48.772;9.154;2023-03-01T05:57:27;14.00;;;8.90;;
9900;SDS011;4989;48.772;9.154;2023-03-01T06:02:30;10.53;;;8.30;;
9900;SDS011;4989;48.772;9.154;2023-03-01T06:07:32;11.60;;;8.13;;
9900;SDS011;4989;48.772;9.154;2023-03-01T06:12:35;13.07;;;8.80;;
9900;SDS011;4989;48.772;9.154;2023-03-01T06:17:40;14.17;;;9.33;;
9900;SDS011;4989;48.772;9.154;2023-03-01T06:22:45;14.00;;;9.23;;
9900;SDS011;4989;48.772;9.154;2023-03-01T06:27:48;10.60;;;8.77;;
9900;SDS011;4989;48.772;9.154;2023-03-01T06:32:50;12.30;;;8.60;;
9900;SDS011;4989;48.772;9.154;2023-03-01T06:37:53;11.60;;;8.43;;
9900;SDS011;4989;48.772;9.154;2023-03-01T06:42:56;13.93;;;9.40;;
9900;SDS011;4989;48.772;9.154;2023-03-01T06:48:05;12.43;;;8.40;;
9900;SDS011;4989;48.772;9.154;2023-03-01T06:53:09;14.50;;;9.03;;
9900;SDS011;4989;48.772;9.154;2023-03-01T06:58:11;11.83;;;8.53;;
9900;SDS011;4989;48.772;9.154;2023-03-01T07:03:13;11.67;;;8.40;;
9900;SDS011;4989;48.772;9.154;2023-03-01T07:08:15;14.27;;;9.47;;
9900;SDS011;4989;48.772;9.154;2023-03-01T07:13:17;13.90;;;9.97;;
9900;SDS011;4989;48.772;9.154;2023-03-01T07:18:19;12.67;;;8.70;;
9900;SDS011;4989;48.772;9.154;2023-03-01T07:23:22;12.60;;;8.30;;
9900;SDS011;4989;48.772;9.154;2023-03-01T07:28:24;14.80;;;10.23;;
9900;SDS011;4989;48.772;9.154;2023-03-01T07:33:26;13.80;;;8.83;;
9900;SDS011;4989;48.772;9.154;2023-03-01T07:38:28;12.50;;;9.17;;
9900;SDS011;4989;48.772;9.154;2023-03-01T07:43:30;13.20;;;9.73;;
9900;SDS011;4989;48.772;9.154;2023-03-01T07:48:33;12.83;;;9.27;;
9900;SDS011;4989;48.772;9.154;2023-03-01T07:53:35;15.50;;;10.00;;
9900;SDS011;4989;48.772;9.154;2023-03-01T07:58:39;13.67;;;10.00;;
9900;SDS011;4989;48.772;9.154;2023-03-01T08:03:43;11.80;;;8.60;;
9900;SDS011;4989;48.772;9.154;2023-03-01T08:08:45;12.60;;;9.17;;
9900;SDS011;4989;48.772;9.154;2023-03-01T08:13:48;12.23;;;9.80;;
9900;SDS011;4989;48.772;9.154;2023-03-01T08:18:54;13.20;;;9.47;;
9900;SDS011;4989;48.772;9.154;2023-03-01T08:23:57;15.57;;;10.10;;
9900;SDS011;4989;48.772;9.154;2023-03-01T08:29:00;13.47;;;9.97;;
9900;SDS011;4989;48.772;9.154;2023-03-01T08:34:03;14.63;;;10.20;;
9900;SDS011;4989;48.772;9.154;2023-03-01T08:39:10;15.00;;;9.87;;
9900;SDS011;4989;48.772;9.154;2023-03-01T08:44:18;14.37;;;9.93;;
9900;SDS011;4989;48.772;9.154;2023-03-01T08:49:22;13.93;;;10.23;;
9900;SDS011;4989;48.772;9.154;2023-03-01T08:54:25;14.93;;;10.40;;
9900;SDS011;4989;48.772;9.154;2023-03-01T08:59:27;15.73;;;10.60;;
9900;SDS011;4989;48.772;9.154;2023-03-01T09:04:31;12.70;;;9.53;;
9900;SDS011;4989;48.772;9.154;2023-03-01T09:09:34;14.77;;;10.03;;
9900;SDS011;4989;48.772;9.154;2023-03-01T09:14:37;20.03;;;10.90;;
9900;SDS011;4989;48.772;9.154;2023-03-01T09:19:40;14.77;;;9.60;;
9900;SDS011;4989;48.772;9.154;2023-03-01T09:24:42;14.47;;;10.63;;
9900;SDS011;4989;48.772;9.154;2023-03-01T09:29:45;16.80;;;11.23;;
9900;SDS011;4989;48.772;9.154;2023-03-01T09:34:47;13.40;;;9.97;;
9900;SDS011;4989;48.772;9.154;2023-03-01T09:40:02;12.63;;;9.60;;
9900;SDS011;4989;48.772;9.154;2023-03-01T09:45:11;15.73;;;11.27;;
9900;SDS011;4989;48.772;9.154;2023-03-01T09:50:21;12.80;;;10.10;;
9900;SDS011;4989;48.772;9.154;2023-03-01T09:55:32;13.90;;;10.63;;
9900;SDS011;4989;48.772;9.154;2023-03-01T10:00:47;14.67;;;10.37;;
9900;SDS011;4989;48.772;9.154;2023-03-01T10:11:20;14.40;;;10.30;;
9900;SDS011;4989;48.772;9.154;2023-03-01T10:21:47;15.33;;;10.77;;
9900;SDS011;4989;48.772;9.154;2023-03-01T10:26:54;14.33;;;10.20;;
9900;SDS011;4989;48.772;9.154;2023-03-01T10:31:58;13.73;;;10.80;;
9900;SDS011;4989;48.772;9.154;2023-03-01T10:37:11;9.83;;;7.83;;
9900;SDS011;4989;48.772;9.154;2023-03-01T10:42:19;14.07;;;10.03;;
9900;SDS011;4989;48.772;9.154;2023-03-01T10:47:35;13.43;;;9.87;;
9900;SDS011;4989;48.772;9.154;2023-03-01T10:52:37;13.47;;;9.87;;
9900;SDS011;4989;48.772;9.154;2023-03-01T10:57:42;12.33;;;9.30;;
9900;SDS011;4989;48.772;9.154;2023-03-01T11:02:49;12.63;;;9.83;;
9900;SDS011;4989;48.772;9.154;2023-03-01T11:08:03;16.80;;;10.63;;
9900;SDS011;4989;48.772;9.154;2023-03-01T11:13:07;12.63;;;9.63;;
9900;SDS011;4989;48.772;9.154;2023-03-01T11:18:21;12.37;;;10.47;;
9900;SDS011;4989;48.772;9.154;2023-03-01T11:23:37;14.73;;;10.67;;
9900;SDS011;4989;48.772;9.154;2023-03-01T11:28:42;14.67;;;10.50;;
9900;SDS011;4989;48.772;9.154;2023-03-01T11:33:55;14.13;;;10.77;;
9900;SDS011;4989;48.772;9.154;2023-03-01T11:39:27;14.00;;;10.80;;
9900;SDS011;4989;48.772;9.154;2023-03-01T11:44:56;15.80;;;11.27;;
9900;SDS011;4989;48.772;9.154;2023-03-01T11:56:03;13.50;;;11.43;;
9900;SDS011;4989;48.772;9.154;2023-03-01T12:07:10;15.87;;;11.50;;
9900;SDS011;4989;48.772;9.154;2023-03-01T12:29:46;10.80;;;9.70;;
9900;SDS011;4989;48.772;9.154;2023-03-01T12:41:30;15.30;;;10.83;;
9900;SDS011;4989;48.772;9.154;2023-03-01T12:46:52;13.30;;;10.50;;
9900;SDS011;4989;48.772;9.154;2023-03-01T12:52:29;12.47;;;9.60;;
9900;SDS011;4989;48.772;9.154;2023-03-01T12:57:45;11.53;;;9.63;;
9900;SDS011;4989;48.772;9.154;2023-03-01T13:08:27;12.30;;;9.17;;
9900;SDS011;4989;48.772;9.154;2023-03-01T13:13:43;11.93;;;8.83;;
9900;SDS011;4989;48.772;9.154;2023-03-01T13:18:45;12.97;;;9.80;;
9900;SDS011;4989;48.772;9.154;2023-03-01T13:23:47;11.20;;;9.23;;
9900;SDS011;4989;48.772;9.154;2023-03-01T13:28:50;9.83;;;8.57;;
9900;SDS011;4989;48.772;9.154;2023-03-01T13:39:02;12.47;;;9.73;;
9900;SDS011;4989;48.772;9.154;2023-03-01T13:44:34;11.37;;;8.93;;
9900;SDS011;4989;48.772;9.154;2023-03-01T13:54:48;11.87;;;9.37;;
9900;SDS011;4989;48.772;9.154;2023-03-01T13:59:50;14.30;;;10.03;;
9900;SDS011;4989;48.772;9.154;2023-03-01T14:04:55;9.77;;;8.43;;
9900;SDS011;4989;48.772;9.154;2023-03-01T14:10:03;11.73;;;9.93;;
9900;SDS011;4989;48.772;9.154;2023-03-01T14:25:36;14.67;;;11.60;;
9900;SDS011;4989;48.772;9.154;2023-03-01T14:30:41;13.40;;;11.47;;
9900;SDS011;4989;48.772;9.154;2023-03-01T14:35:55;15.20;;;11.93;;
9900;SDS011;4989;48.772;9.154;2023-03-01T14:41:16;13.23;;;11.53;;
9900;SDS011;4989;48.772;9.154;2023-03-01T14:46:24;15.00;;;11.30;;
9900;SDS011;4989;48.772;9.154;2023-03-01T14:51:37;14.70;;;10.73;;
9900;SDS011;4989;48.772;9.154;2023-03-01T14:56:43;16.10;;;10.23;;
9900;SDS011;4989;48.772;9.154;2023-03-01T15:01:48;15.87;;;10.73;;
9900;SDS011;4989;48.772;9.154;2023-03-01T15:06:53;14.37;;;10.67;;
9900;SDS011;4989;48.772;9.154;2023-03-01T15:12:23;14.30;;;10.30;;
9900;SDS011;4989;48.772;9.154;2023-03-01T15:22:35;13.03;;;9.97;;
9900;SDS011;4989;48.772;9.154;2023-03-01T15:27:38;14.80;;;11.47;;
9900;SDS011;4989;48.772;9.154;2023-03-01T15:32:48;12.20;;;9.93;;
9900;SDS011;4989;48.772;9.154;2023-03-01T15:43:39;14.00;;;10.70;;
9900;SDS011;4989;48.772;9.154;2023-03-01T15:48:47;12.80;;;10.33;;
9900;SDS011;4989;48.772;9.154;2023-03-01T15:53:54;13.90;;;10.47;;
9900;SDS011;4989;48.772;9.154;2023-03-01T15:59:00;13.97;;;10.27;;
9900;SDS011;4989;48.772;9.154;2023-03-01T16:04:03;13.50;;;9.63;;
9900;SDS011;4989;48.772;9.154;2023-03-01T16:09:06;12.53;;;9.70;;
9900;SDS011;4989;48.772;9.154;2023-03-01T16:14:09;12.00;;;8.63;;
9900;SDS011;4989;48.772;9.154;2023-03-01T16:19:11;11.53;;;8.97;;
9900;SDS011;4989;48.772;9.154;2023-03-01T16:24:14;13.67;;;10.07;;
9900;SDS011;4989;48.772;9.154;2023-03-01T16:29:18;12.80;;;9.30;;
9900;SDS011;4989;48.772;9.154;2023-03-01T16:34:21;13.30;;;10.13;;
9900;SDS011;4989;48.772;9.154;2023-03-01T16:39:27;13.80;;;10.33;;
9900;SDS011;4989;48.772;9.154;2023-03-01T16:44:30;12.40;;;9.47;;
9900;SDS011;4989;48.772;9.154;2023-03-01T16:49:33;15.53;;;9.53;;
9900;SDS011;4989;48.772;9.154;2023-03-01T16:54:35;12.93;;;9.73;;
9900;SDS011;4989;48.772;9.154;2023-03-01T16:59:37;15.53;;;10.10;;
9900;SDS011;4989;48.772;9.154;2023-03-01T17:04:40;14.93;;;10.27;;
9900;SDS011;4989;48.772;9.154;2023-03-01T17:09:42;14.20;;;10.33;;
9900;SDS011;4989;48.772;9.154;2023-03-01T17:14:45;15.37;;;9.73;;
9900;SDS011;4989;48.772;9.154;2023-03-01T17:19:50;11.67;;;8.97;;
9900;SDS011;4989;48.772;9.154;2023-03-01T17:24:56;13.97;;;9.07;;
9900;SDS011;4989;48.772;9.154;2023-03-01T17:29:59;12.27;;;10.03;;
9900;SDS011;4989;48.772;9.154;2023-03-01T17:35:01;14.37;;;10.00;;
9900;SDS011;4989;48.772;9.154;2023-03-01T17:40:04;12.50;;;8.70;;
9900;SDS011;4989;48.772;9.154;2023-03-01T17:45:07;14.80;;;10.40;;
9900;SDS011;4989;48.772;9.154;2023-03-01T17:50:10;13.90;;;10.00;;
9900;SDS011;4989;48.772;9.154;2023-03-01T17:55:13;11.07;;;8.77;;
9900;SDS011;4989;48.772;9.154;2023-03-01T18:00:16;11.60;;;8.00;;
9900;SDS011;4989;48.772;9.154;2023-03-01T18:05:19;13.80;;;10.10;;
9900;SDS011;4989;48.772;9.154;2023-03-01T18:10:22;15.03;;;10.47;;
9900;SDS011;4989;48.772;9.154;2023-03-01T18:15:24;14.87;;;9.87;;
9900;SDS011;4989;48.772;9.154;2023-03-01T18:20:27;19.70;;;12.47;;
9900;SDS011;4989;48.772;9.154;2023-03-01T18:25:31;14.60;;;10.40;;
9900;SDS011;4989;48.772;9.154;2023-03-01T18:30:34;15.70;;;9.93;;
9900;SDS011;4989;48.772;9.154;2023-03-01T18:35:37;15.43;;;10.53;;
9900;SDS011;4989;48.772;9.154;2023-03-01T18:40:40;19.63;;;12.27;;
9900;SDS011;4989;48.772;9.154;2023-03-01T18:45:43;16.97;;;10.93;;
9900;SDS011;4989;48.772;9.154;2023-03-01T18:50:46;15.07;;;11.03;;
9900;SDS011;4989;48.772;9.154;2023-03-01T18:55:48;17.20;;;11.03;;
9900;SDS011;4989;48.772;9.154;2023-03-01T19:00:51;11.83;;;8.30;;
9900;SDS011;4989;48.772;9.154;2023-03-01T19:05:54;14.07;;;10.97;;
9900;SDS011;4989;48.772;9.154;2023-03-01T19:10:58;13.83;;;10.60;;
9900;SDS011;4989;48.772;9.154;2023-03-01T19:16:07;14.83;;;10.30;;
9900;SDS011;4989;48.772;9.154;2023-03-01T19:21:12;15.23;;;10.70;;
9900;SDS011;4989;48.772;9.154;2023-03-01T19:26:15;14.43;;;10.47;;
9900;SDS011;4989;48.772;9.154;2023-03-01T19:31:21;16.40;;;11.63;;
9900;SDS011;4989;48.772;9.154;2023-03-01T19:36:27;16.13;;;10.13;;
9900;SDS011;4989;48.772;9.154;2023-03-01T19:41:33;15.57;;;11.33;;
9900;SDS011;4989;48.772;9.154;2023-03-01T19:46:36;16.87;;;11.97;;
9900;SDS011;4989;48.772;9.154;2023-03-01T19:51:41;16.40;;;11.70;;
9900;SDS011;4989;48.772;9.154;2023-03-01T19:56:44;14.67;;;10.87;;
9900;SDS011;4989;48.772;9.154;2023-03-01T20:01:49;13.90;;;9.77;;
9900;SDS011;4989;48.772;9.154;2023-03-01T20:06:53;12.53;;;9.07;;
9900;SDS011;4989;48.772;9.154;2023-03-01T20:11:55;14.93;;;10.87;;
9900;SDS011;4989;48.772;9.154;2023-03-01T20:16:57;17.17;;;11.27;;
9900;SDS011;4989;48.772;9.154;2023-03-01T20:21:59;17.27;;;10.90;;
9900;SDS011;4989;48.772;9.154;2023-03-01T20:27:03;17.10;;;11.13;;
9900;SDS011;4989;48.772;9.154;2023-03-01T20:32:05;15.27;;;9.80;;
9900;SDS011;4989;48.772;9.154;2023-03-01T20:37:07;16.63;;;10.43;;
9900;SDS011;4989;48.772;9.154;2023-03-01T20:42:09;16.43;;;12.00;;
9900;SDS011;4989;48.772;9.154;2023-03-01T20:47:12;18.20;;;11.80;;
9900;SDS011;4989;48.772;9.154;2023-03-01T20:52:15;15.27;;;10.90;;
9900;SDS011;4989;48.772;9.154;2023-03-01T20:57:17;17.40;;;10.57;;
9900;SDS011;4989;48.772;9.154;2023-03-01T21:02:19;15.13;;;11.03;;
9900;SDS011;4989;48.772;9.154;2023-03-01T21:07:21;16.07;;;10.67;;
9900;SDS011;4989;48.772;9.154;2023-03-01T21:12:24;14.73;;;10.20;;
9900;SDS011;4989;48.772;9.154;2023-03-01T21:17:27;12.90;;;9.90;;
9900;SDS011;4989;48.772;9.154;2023-03-01T21:22:29;13.07;;;9.73;;
9900;SDS011;4989;48.772;9.154;2023-03-01T21:27:36;13.27;;;9.40;;
9900;SDS011;4989;48.772;9.154;2023-03-01T21:32:38;14.87;;;10.70;;
9900;SDS011;4989;48.772;9.154;2023-03-01T21:37:40;14.77;;;10.07;;
9900;SDS011;4989;48.772;9.154;2023-03-01T21:42:42;14.17;;;10.50;;
9900;SDS011;4989;48.772;9.154;2023-03-01T21:47:45;15.47;;;10.67;;
9900;SDS011;4989;48.772;9.154;2023-03-01T21:52:47;14.30;;;9.60;;
9900;SDS011;4989;48.772;9.154;2023-03-01T21:57:52;14.53;;;10.00;;
9900;SDS011;4989;48.772;9.154;2023-03-01T22:02:54;16.67;;;10.43;;
9900;SDS011;4989;48.772;9.154;2023-03-01T22:07:58;12.80;;;9.57;;
9900;SDS011;4989;48.772;9.154;2023-03-01T22:13:00;17.57;;;11.97;;
9900;SDS011;4989;48.772;9.154;2023-03-01T22:18:02;12.37;;;9.53;;
9900;SDS011;4989;48.772;9.154;2023-03-01T22:23:05;15.90;;;10.70;;
9900;SDS011;4989;48.772;9.154;2023-03-01T22:28:08;14.67;;;9.60;;
9900;SDS011;4989;48.772;9.154;2023-03-01T22:33:10;15.73;;;11.33;;
9900;SDS011;4989;48.772;9.154;2023-03-01T22:38:12;15.43;;;11.17;;
9900;SDS011;4989;48.772;9.154;2023-03-01T22:43:16;13.03;;;9.80;;
9900;SDS011;4989;48.772;9.154;2023-03-01T22:48:18;14.27;;;10.10;;
9900;SDS011;4989;48.772;9.154;2023-03-01T22:53:20;15.87;;;11.37;;
9900;SDS011;4989;48.772;9.154;2023-03-01T22:58:22;16.67;;;10.87;;
9900;SDS011;4989;48.772;9.154;2023-03-01T23:03:25;15.50;;;10.87;;
9900;SDS011;4989;48.772;9.154;2023-03-01T23:08:27;16.97;;;11.00;;
9900;SDS011;4989;48.772;9.154;2023-03-01T23:13:29;15.73;;;10.90;;
9900;SDS011;4989;48.772;9.154;2023-03-01T23:18:31;18.53;;;10.60;;
9900;SDS011;4989;48.772;9.154;2023-03-01T23:23:34;12.80;;;9.37;;
9900;SDS011;4989;48.772;9.154;2023-03-01T23:28:36;14.53;;;10.67;;
9900;SDS011;4989;48.772;9.154;2023-03-01T23:33:42;16.07;;;10.97;;
9900;SDS011;4989;48.772;9.154;2023-03-01T23:38:46;14.17;;;9.90;;
9900;SDS011;4989;48.772;9.154;2023-03-01T23:43:52;15.63;;;10.23;;
9900;SDS011;4989;48.772;9.154;2023-03-01T23:48:57;16.73;;;11.03;;
9900;SDS011;4989;48.772;9.154;2023-03-01T23:54:00;15.93;;;9.73;;
9900;SDS011;4989;48.772;9.154;2023-03-01T23:59:06;11.77;;;7.87;;
